sensor_id;sensor_type;location;lat;lon;timestamp;P1;durP1;ratioP1;P2;durP2;ratioP2
8104;SDS011;4095;48.942;9.104;2023-01-28T00:01:14;4.90;;;4.23;;
8104;SDS011;4095;48.942;9.104;2023-01-28T00:03:41;5.23;;;4.37;;
8104;SDS011;4095;48.942;9.104;2023-01-28T00:06:09;5.17;;;4.67;;
8104;SDS011;4095;48.942;9.104;2023-01-28T00:08:38;4.23;;;3.80;;
8104;SDS011;4095;48.942;9.104;2023-01-28T00:11:05;4.77;;;4.23;;
8104;SDS011;4095;48.942;9.104;2023-01-28T00:13:32;5.37;;;4.50;;
8104;SDS011;4095;48.942;9.104;2023-01-28T00:15:59;4.17;;;3.70;;
8104;SDS011;4095;48.942;9.104;2023-01-28T00:18:26;4.73;;;4.10;;
8104;SDS011;4095;48.942;9.104;2023-01-28T00:21:03;4.40;;;4.00;;
8104;SDS011;4095;48.942;9.104;2023-01-28T00:23:35;4.23;;;3.60;;
8104;SDS011;4095;48.942;9.104;2023-01-28T00:26:03;4.33;;;3.93;;
8104;SDS011;4095;48.942;9.104;2023-01-28T00:28:35;4.13;;;3.70;;
8104;SDS011;4095;48.942;9.104;2023-01-28T00:31:05;4.17;;;3.67;;
8104;SDS011;4095;48.942;9.104;2023-01-28T00:33:41;4.27;;;3.60;;
8104;SDS011;4095;48.942;9.104;2023-01-28T00:36:08;4.00;;;3.57;;
8104;SDS011;4095;48.942;9.104;2023-01-28T00:38:34;3.80;;;3.40;;
8104;SDS011;4095;48.942;9.104;2023-01-28T00:41:07;4.20;;;3.80;;
8104;SDS011;4095;48.942;9.104;2023-01-28T00:43:37;5.67;;;3.83;;
8104;SDS011;4095;48.942;9.104;2023-01-28T00:46:04;3.97;;;3.53;;
8104;SDS011;4095;48.942;9.104;2023-01-28T00:48:37;3.93;;;3.53;;
8104;SDS011;4095;48.942;9.104;2023-01-28T00:51:04;3.80;;;3.40;;
8104;SDS011;4095;48.942;9.104;2023-01-28T00:53:30;17.20;;;11.67;;
8104;SDS011;4095;48.942;9.104;2023-01-28T00:55:56;19.27;;;10.00;;
8104;SDS011;4095;48.942;9.104;2023-01-28T00:58:22;23.87;;;12.97;;
8104;SDS011;4095;48.942;9.104;2023-01-28T01:00:48;5.43;;;4.00;;
8104;SDS011;4095;48.942;9.104;2023-01-28T01:03:15;3.60;;;3.30;;
8104;SDS011;4095;48.942;9.104;2023-01-28T01:05:41;3.87;;;3.47;;
8104;SDS011;4095;48.942;9.104;2023-01-28T01:08:07;3.70;;;3.30;;
8104;SDS011;4095;48.942;9.104;2023-01-28T01:10:32;3.47;;;3.17;;
8104;SDS011;4095;48.942;9.104;2023-01-28T01:12:58;4.00;;;3.60;;
8104;SDS011;4095;48.942;9.104;2023-01-28T01:15:24;4.03;;;3.63;;
8104;SDS011;4095;48.942;9.104;2023-01-28T01:17:50;4.23;;;3.67;;
8104;SDS011;4095;48.942;9.104;2023-01-28T01:20:21;4.10;;;3.67;;
8104;SDS011;4095;48.942;9.104;2023-01-28T01:22:50;3.77;;;3.37;;
8104;SDS011;4095;48.942;9.104;2023-01-28T01:25:24;4.00;;;3.60;;
8104;SDS011;4095;48.942;9.104;2023-01-28T01:27:50;3.53;;;3.23;;
8104;SDS011;4095;48.942;9.104;2023-01-28T01:30:17;3.83;;;3.40;;
8104;SDS011;4095;48.942;9.104;2023-01-28T01:32:44;4.03;;;3.63;;
8104;SDS011;4095;48.942;9.104;2023-01-28T01:35:10;4.40;;;3.53;;
8104;SDS011;4095;48.942;9.104;2023-01-28T01:37:36;3.83;;;3.40;;
8104;SDS011;4095;48.942;9.104;2023-01-28T01:40:02;4.03;;;3.67;;
8104;SDS011;4095;48.942;9.104;2023-01-28T01:42:29;4.07;;;3.67;;
8104;SDS011;4095;48.942;9.104;2023-01-28T01:47:45;3.70;;;3.40;;
8104;SDS011;4095;48.942;9.104;2023-01-28T01:50:18;4.73;;;3.43;;
8104;SDS011;4095;48.942;9.104;2023-01-28T01:53:02;3.67;;;3.27;;
8104;SDS011;4095;48.942;9.104;2023-01-28T01:55:34;4.00;;;3.60;;
8104;SDS011;4095;48.942;9.104;2023-01-28T01:58:03;5.17;;;3.70;;
8104;SDS011;4095;48.942;9.104;2023-01-28T02:00:34;4.93;;;4.27;;
8104;SDS011;4095;48.942;9.104;2023-01-28T02:03:01;4.40;;;4.00;;
8104;SDS011;4095;48.942;9.104;2023-01-28T02:05:39;4.10;;;3.50;;
8104;SDS011;4095;48.942;9.104;2023-01-28T02:08:22;4.10;;;3.50;;
8104;SDS011;4095;48.942;9.104;2023-01-28T02:10:51;4.70;;;4.20;;
8104;SDS011;4095;48.942;9.104;2023-01-28T02:13:24;5.00;;;4.20;;
8104;SDS011;4095;48.942;9.104;2023-01-28T02:15:53;4.57;;;4.17;;
8104;SDS011;4095;48.942;9.104;2023-01-28T02:18:20;4.37;;;3.97;;
8104;SDS011;4095;48.942;9.104;2023-01-28T02:31:33;6.87;;;5.50;;
8104;SDS011;4095;48.942;9.104;2023-01-28T02:39:50;4.27;;;3.83;;
8104;SDS011;4095;48.942;9.104;2023-01-28T02:42:25;5.20;;;4.17;;
8104;SDS011;4095;48.942;9.104;2023-01-28T02:44:54;5.63;;;4.67;;
8104;SDS011;4095;48.942;9.104;2023-01-28T02:47:20;4.90;;;4.40;;
8104;SDS011;4095;48.942;9.104;2023-01-28T02:50:05;4.73;;;4.17;;
8104;SDS011;4095;48.942;9.104;2023-01-28T03:01:23;5.50;;;4.47;;
8104;SDS011;4095;48.942;9.104;2023-01-28T03:06:49;5.60;;;5.00;;
8104;SDS011;4095;48.942;9.104;2023-01-28T03:09:17;5.43;;;4.93;;
8104;SDS011;4095;48.942;9.104;2023-01-28T03:11:49;6.23;;;4.60;;
8104;SDS011;4095;48.942;9.104;2023-01-28T03:14:55;5.00;;;4.50;;
8104;SDS011;4095;48.942;9.104;2023-01-28T03:21:06;5.60;;;4.80;;
8104;SDS011;4095;48.942;9.104;2023-01-28T03:23:59;5.90;;;4.70;;
8104;SDS011;4095;48.942;9.104;2023-01-28T03:26:53;5.13;;;4.63;;
8104;SDS011;4095;48.942;9.104;2023-01-28T03:29:44;6.23;;;4.97;;
8104;SDS011;4095;48.942;9.104;2023-01-28T03:32:31;5.17;;;4.67;;
8104;SDS011;4095;48.942;9.104;2023-01-28T03:35:16;5.50;;;4.90;;
8104;SDS011;4095;48.942;9.104;2023-01-28T03:38:03;6.00;;;5.40;;
8104;SDS011;4095;48.942;9.104;2023-01-28T03:41:03;6.03;;;5.23;;
8104;SDS011;4095;48.942;9.104;2023-01-28T03:43:29;6.13;;;5.53;;
8104;SDS011;4095;48.942;9.104;2023-01-28T03:45:55;5.90;;;5.30;;
8104;SDS011;4095;48.942;9.104;2023-01-28T03:48:22;6.13;;;5.30;;
8104;SDS011;4095;48.942;9.104;2023-01-28T03:50:49;6.57;;;5.20;;
8104;SDS011;4095;48.942;9.104;2023-01-28T03:53:16;5.50;;;4.90;;
8104;SDS011;4095;48.942;9.104;2023-01-28T03:55:43;6.60;;;5.43;;
8104;SDS011;4095;48.942;9.104;2023-01-28T03:58:10;5.90;;;5.03;;
8104;SDS011;4095;48.942;9.104;2023-01-28T04:00:36;5.73;;;5.17;;
8104;SDS011;4095;48.942;9.104;2023-01-28T04:03:15;6.00;;;5.40;;
8104;SDS011;4095;48.942;9.104;2023-01-28T04:05:43;6.20;;;5.10;;
8104;SDS011;4095;48.942;9.104;2023-01-28T04:08:35;6.23;;;5.33;;
8104;SDS011;4095;48.942;9.104;2023-01-28T04:11:01;6.00;;;5.10;;
8104;SDS011;4095;48.942;9.104;2023-01-28T04:13:43;8.30;;;5.93;;
8104;SDS011;4095;48.942;9.104;2023-01-28T04:16:10;6.23;;;5.43;;
8104;SDS011;4095;48.942;9.104;2023-01-28T04:18:37;6.57;;;5.87;;
8104;SDS011;4095;48.942;9.104;2023-01-28T04:21:03;8.07;;;6.43;;
8104;SDS011;4095;48.942;9.104;2023-01-28T04:23:29;8.07;;;5.87;;
8104;SDS011;4095;48.942;9.104;2023-01-28T04:25:54;7.20;;;5.90;;
8104;SDS011;4095;48.942;9.104;2023-01-28T04:28:20;6.77;;;5.87;;
8104;SDS011;4095;48.942;9.104;2023-01-28T04:30:46;5.90;;;5.20;;
8104;SDS011;4095;48.942;9.104;2023-01-28T04:33:12;6.10;;;5.50;;
8104;SDS011;4095;48.942;9.104;2023-01-28T04:35:38;6.03;;;5.37;;
8104;SDS011;4095;48.942;9.104;2023-01-28T04:38:04;6.00;;;5.40;;
8104;SDS011;4095;48.942;9.104;2023-01-28T04:40:29;6.40;;;5.77;;
8104;SDS011;4095;48.942;9.104;2023-01-28T04:42:55;7.93;;;6.20;;
8104;SDS011;4095;48.942;9.104;2023-01-28T04:45:21;8.63;;;6.20;;
8104;SDS011;4095;48.942;9.104;2023-01-28T04:47:47;7.27;;;6.47;;
8104;SDS011;4095;48.942;9.104;2023-01-28T04:50:13;6.50;;;5.80;;
8104;SDS011;4095;48.942;9.104;2023-01-28T04:52:39;6.77;;;5.93;;
8104;SDS011;4095;48.942;9.104;2023-01-28T04:55:05;6.63;;;5.77;;
8104;SDS011;4095;48.942;9.104;2023-01-28T04:57:31;7.30;;;6.60;;
8104;SDS011;4095;48.942;9.104;2023-01-28T04:59:57;7.03;;;5.73;;
8104;SDS011;4095;48.942;9.104;2023-01-28T05:02:22;6.30;;;5.63;;
8104;SDS011;4095;48.942;9.104;2023-01-28T05:04:48;6.83;;;5.90;;
8104;SDS011;4095;48.942;9.104;2023-01-28T05:07:13;6.83;;;5.97;;
8104;SDS011;4095;48.942;9.104;2023-01-28T05:09:39;7.30;;;6.10;;
8104;SDS011;4095;48.942;9.104;2023-01-28T05:12:05;6.07;;;5.47;;
8104;SDS011;4095;48.942;9.104;2023-01-28T05:14:30;7.60;;;6.80;;
8104;SDS011;4095;48.942;9.104;2023-01-28T05:16:57;6.77;;;5.60;;
8104;SDS011;4095;48.942;9.104;2023-01-28T05:19:22;7.20;;;6.50;;
8104;SDS011;4095;48.942;9.104;2023-01-28T05:21:48;6.70;;;6.00;;
8104;SDS011;4095;48.942;9.104;2023-01-28T05:24:13;6.50;;;5.53;;
8104;SDS011;4095;48.942;9.104;2023-01-28T05:26:40;6.43;;;5.80;;
8104;SDS011;4095;48.942;9.104;2023-01-28T05:29:06;6.73;;;5.83;;
8104;SDS011;4095;48.942;9.104;2023-01-28T05:31:31;7.53;;;6.37;;
8104;SDS011;4095;48.942;9.104;2023-01-28T05:33:57;8.40;;;6.77;;
8104;SDS011;4095;48.942;9.104;2023-01-28T05:36:23;6.87;;;6.03;;
8104;SDS011;4095;48.942;9.104;2023-01-28T05:38:48;7.50;;;6.20;;
8104;SDS011;4095;48.942;9.104;2023-01-28T05:41:14;9.60;;;7.17;;
8104;SDS011;4095;48.942;9.104;2023-01-28T05:43:40;6.87;;;6.17;;
8104;SDS011;4095;48.942;9.104;2023-01-28T05:46:05;7.60;;;6.80;;
8104;SDS011;4095;48.942;9.104;2023-01-28T05:48:31;7.73;;;6.53;;
8104;SDS011;4095;48.942;9.104;2023-01-28T05:50:57;7.30;;;6.53;;
8104;SDS011;4095;48.942;9.104;2023-01-28T05:53:22;8.43;;;7.10;;
8104;SDS011;4095;48.942;9.104;2023-01-28T05:55:49;8.13;;;7.33;;
8104;SDS011;4095;48.942;9.104;2023-01-28T05:58:15;8.60;;;7.00;;
8104;SDS011;4095;48.942;9.104;2023-01-28T06:00:41;6.93;;;6.13;;
8104;SDS011;4095;48.942;9.104;2023-01-28T06:03:07;7.47;;;6.53;;
8104;SDS011;4095;48.942;9.104;2023-01-28T06:05:32;8.77;;;6.53;;
8104;SDS011;4095;48.942;9.104;2023-01-28T06:07:58;7.30;;;6.57;;
8104;SDS011;4095;48.942;9.104;2023-01-28T06:10:23;7.50;;;6.80;;
8104;SDS011;4095;48.942;9.104;2023-01-28T06:12:49;7.67;;;6.87;;
8104;SDS011;4095;48.942;9.104;2023-01-28T06:15:15;7.80;;;7.00;;
8104;SDS011;4095;48.942;9.104;2023-01-28T06:17:40;7.30;;;6.40;;
8104;SDS011;4095;48.942;9.104;2023-01-28T06:20:06;8.03;;;7.17;;
8104;SDS011;4095;48.942;9.104;2023-01-28T06:22:35;8.07;;;7.27;;
8104;SDS011;4095;48.942;9.104;2023-01-28T06:25:00;8.57;;;7.07;;
8104;SDS011;4095;48.942;9.104;2023-01-28T06:27:26;9.10;;;7.80;;
8104;SDS011;4095;48.942;9.104;2023-01-28T06:29:52;8.20;;;7.40;;
8104;SDS011;4095;48.942;9.104;2023-01-28T06:32:18;9.40;;;7.57;;
8104;SDS011;4095;48.942;9.104;2023-01-28T06:34:43;8.87;;;6.97;;
8104;SDS011;4095;48.942;9.104;2023-01-28T06:37:13;8.57;;;7.30;;
8104;SDS011;4095;48.942;9.104;2023-01-28T06:39:39;9.00;;;7.50;;
8104;SDS011;4095;48.942;9.104;2023-01-28T06:42:05;7.73;;;6.93;;
8104;SDS011;4095;48.942;9.104;2023-01-28T06:44:30;7.97;;;6.90;;
8104;SDS011;4095;48.942;9.104;2023-01-28T06:46:56;8.67;;;7.30;;
8104;SDS011;4095;48.942;9.104;2023-01-28T06:49:21;9.40;;;7.90;;
8104;SDS011;4095;48.942;9.104;2023-01-28T06:51:47;8.73;;;7.73;;
8104;SDS011;4095;48.942;9.104;2023-01-28T06:54:13;7.87;;;7.07;;
8104;SDS011;4095;48.942;9.104;2023-01-28T06:56:39;8.67;;;7.53;;
8104;SDS011;4095;48.942;9.104;2023-01-28T06:59:04;9.03;;;8.10;;
8104;SDS011;4095;48.942;9.104;2023-01-28T07:01:30;8.33;;;7.43;;
8104;SDS011;4095;48.942;9.104;2023-01-28T07:03:56;8.07;;;7.27;;
8104;SDS011;4095;48.942;9.104;2023-01-28T07:06:22;11.57;;;8.67;;
8104;SDS011;4095;48.942;9.104;2023-01-28T07:08:47;9.77;;;8.53;;
8104;SDS011;4095;48.942;9.104;2023-01-28T07:11:13;8.37;;;7.47;;
8104;SDS011;4095;48.942;9.104;2023-01-28T07:13:39;9.23;;;8.10;;
8104;SDS011;4095;48.942;9.104;2023-01-28T07:16:05;8.93;;;8.03;;
8104;SDS011;4095;48.942;9.104;2023-01-28T07:18:31;8.80;;;7.73;;
8104;SDS011;4095;48.942;9.104;2023-01-28T07:20:57;9.17;;;8.13;;
8104;SDS011;4095;48.942;9.104;2023-01-28T07:23:22;8.03;;;6.90;;
8104;SDS011;4095;48.942;9.104;2023-01-28T07:25:48;8.73;;;7.83;;
8104;SDS011;4095;48.942;9.104;2023-01-28T07:28:13;9.90;;;8.20;;
8104;SDS011;4095;48.942;9.104;2023-01-28T07:30:45;9.47;;;8.47;;
8104;SDS011;4095;48.942;9.104;2023-01-28T07:33:12;8.83;;;7.93;;
8104;SDS011;4095;48.942;9.104;2023-01-28T07:35:38;9.90;;;8.43;;
8104;SDS011;4095;48.942;9.104;2023-01-28T07:38:03;10.30;;;8.13;;
8104;SDS011;4095;48.942;9.104;2023-01-28T07:40:29;9.63;;;8.63;;
8104;SDS011;4095;48.942;9.104;2023-01-28T07:42:54;10.50;;;9.33;;
8104;SDS011;4095;48.942;9.104;2023-01-28T07:45:21;9.47;;;8.37;;
8104;SDS011;4095;48.942;9.104;2023-01-28T07:47:57;9.33;;;8.43;;
8104;SDS011;4095;48.942;9.104;2023-01-28T07:50:25;9.87;;;8.53;;
8104;SDS011;4095;48.942;9.104;2023-01-28T07:52:51;11.10;;;8.97;;
8104;SDS011;4095;48.942;9.104;2023-01-28T07:55:17;11.30;;;9.23;;
8104;SDS011;4095;48.942;9.104;2023-01-28T08:00:15;11.47;;;9.90;;
8104;SDS011;4095;48.942;9.104;2023-01-28T08:02:41;11.40;;;10.10;;
8104;SDS011;4095;48.942;9.104;2023-01-28T08:05:10;10.50;;;9.47;;
8104;SDS011;4095;48.942;9.104;2023-01-28T08:07:35;11.13;;;9.93;;
8104;SDS011;4095;48.942;9.104;2023-01-28T08:10:01;11.70;;;10.50;;
8104;SDS011;4095;48.942;9.104;2023-01-28T08:12:26;11.10;;;10.00;;
8104;SDS011;4095;48.942;9.104;2023-01-28T08:14:53;11.00;;;9.50;;
8104;SDS011;4095;48.942;9.104;2023-01-28T08:17:18;10.87;;;9.40;;
8104;SDS011;4095;48.942;9.104;2023-01-28T08:19:44;10.03;;;8.97;;
8104;SDS011;4095;48.942;9.104;2023-01-28T08:22:10;10.13;;;9.00;;
8104;SDS011;4095;48.942;9.104;2023-01-28T08:24:35;10.37;;;9.17;;
8104;SDS011;4095;48.942;9.104;2023-01-28T08:27:01;10.30;;;8.87;;
8104;SDS011;4095;48.942;9.104;2023-01-28T08:29:26;11.97;;;10.27;;
8104;SDS011;4095;48.942;9.104;2023-01-28T08:31:52;11.77;;;10.20;;
8104;SDS011;4095;48.942;9.104;2023-01-28T08:34:17;12.10;;;10.70;;
8104;SDS011;4095;48.942;9.104;2023-01-28T08:36:43;12.60;;;11.27;;
8104;SDS011;4095;48.942;9.104;2023-01-28T08:39:08;11.73;;;10.50;;
8104;SDS011;4095;48.942;9.104;2023-01-28T08:41:34;14.07;;;11.30;;
8104;SDS011;4095;48.942;9.104;2023-01-28T08:43:59;12.10;;;10.80;;
8104;SDS011;4095;48.942;9.104;2023-01-28T08:46:25;12.23;;;10.93;;
8104;SDS011;4095;48.942;9.104;2023-01-28T08:48:51;12.67;;;10.80;;
8104;SDS011;4095;48.942;9.104;2023-01-28T08:51:16;12.00;;;10.63;;
8104;SDS011;4095;48.942;9.104;2023-01-28T08:53:42;13.83;;;11.53;;
8104;SDS011;4095;48.942;9.104;2023-01-28T08:56:07;12.83;;;11.30;;
8104;SDS011;4095;48.942;9.104;2023-01-28T08:58:33;13.43;;;10.50;;
8104;SDS011;4095;48.942;9.104;2023-01-28T09:01:03;12.80;;;11.27;;
8104;SDS011;4095;48.942;9.104;2023-01-28T09:03:29;12.37;;;11.07;;
8104;SDS011;4095;48.942;9.104;2023-01-28T09:05:58;14.43;;;11.37;;
8104;SDS011;4095;48.942;9.104;2023-01-28T09:08:27;12.43;;;10.80;;
8104;SDS011;4095;48.942;9.104;2023-01-28T09:10:54;13.03;;;10.60;;
8104;SDS011;4095;48.942;9.104;2023-01-28T09:13:23;12.97;;;11.30;;
8104;SDS011;4095;48.942;9.104;2023-01-28T09:15:49;13.80;;;11.97;;
8104;SDS011;4095;48.942;9.104;2023-01-28T09:18:15;14.60;;;11.97;;
8104;SDS011;4095;48.942;9.104;2023-01-28T09:20:41;14.03;;;12.07;;
8104;SDS011;4095;48.942;9.104;2023-01-28T09:23:07;13.53;;;11.87;;
8104;SDS011;4095;48.942;9.104;2023-01-28T09:25:32;12.00;;;10.70;;
8104;SDS011;4095;48.942;9.104;2023-01-28T09:28:00;12.50;;;10.17;;
8104;SDS011;4095;48.942;9.104;2023-01-28T09:30:26;12.00;;;10.53;;
8104;SDS011;4095;48.942;9.104;2023-01-28T09:32:52;13.60;;;11.37;;
8104;SDS011;4095;48.942;9.104;2023-01-28T09:35:19;11.93;;;10.30;;
8104;SDS011;4095;48.942;9.104;2023-01-28T09:37:45;12.37;;;10.80;;
8104;SDS011;4095;48.942;9.104;2023-01-28T09:40:54;12.60;;;11.03;;
8104;SDS011;4095;48.942;9.104;2023-01-28T09:45:42;14.27;;;11.40;;
8104;SDS011;4095;48.942;9.104;2023-01-28T09:48:13;14.83;;;12.67;;
8104;SDS011;4095;48.942;9.104;2023-01-28T09:50:44;14.13;;;12.13;;
8104;SDS011;4095;48.942;9.104;2023-01-28T09:53:16;11.50;;;10.33;;
8104;SDS011;4095;48.942;9.104;2023-01-28T09:55:54;11.83;;;10.40;;
8104;SDS011;4095;48.942;9.104;2023-01-28T09:58:22;13.63;;;10.77;;
8104;SDS011;4095;48.942;9.104;2023-01-28T10:00:53;12.47;;;10.77;;
8104;SDS011;4095;48.942;9.104;2023-01-28T10:14:16;13.70;;;10.77;;
8104;SDS011;4095;48.942;9.104;2023-01-28T10:16:56;13.10;;;11.37;;
8104;SDS011;4095;48.942;9.104;2023-01-28T10:19:31;14.73;;;12.13;;
8104;SDS011;4095;48.942;9.104;2023-01-28T10:22:10;14.77;;;12.47;;
8104;SDS011;4095;48.942;9.104;2023-01-28T10:24:51;14.03;;;12.07;;
8104;SDS011;4095;48.942;9.104;2023-01-28T10:27:22;12.63;;;10.83;;
8104;SDS011;4095;48.942;9.104;2023-01-28T10:29:52;13.47;;;11.50;;
8104;SDS011;4095;48.942;9.104;2023-01-28T10:32:34;13.67;;;11.17;;
8104;SDS011;4095;48.942;9.104;2023-01-28T10:35:07;12.30;;;10.87;;
8104;SDS011;4095;48.942;9.104;2023-01-28T10:37:34;12.30;;;11.00;;
8104;SDS011;4095;48.942;9.104;2023-01-28T10:40:03;12.50;;;11.17;;
8104;SDS011;4095;48.942;9.104;2023-01-28T10:42:31;13.03;;;11.23;;
8104;SDS011;4095;48.942;9.104;2023-01-28T10:44:59;15.50;;;12.60;;
8104;SDS011;4095;48.942;9.104;2023-01-28T10:47:51;14.10;;;11.50;;
8104;SDS011;4095;48.942;9.104;2023-01-28T10:50:24;14.10;;;11.50;;
8104;SDS011;4095;48.942;9.104;2023-01-28T10:52:56;14.33;;;11.23;;
8104;SDS011;4095;48.942;9.104;2023-01-28T10:55:22;16.20;;;13.27;;
8104;SDS011;4095;48.942;9.104;2023-01-28T10:57:51;14.33;;;11.67;;
8104;SDS011;4095;48.942;9.104;2023-01-28T11:02:47;13.17;;;11.47;;
8104;SDS011;4095;48.942;9.104;2023-01-28T11:05:15;11.90;;;10.57;;
8104;SDS011;4095;48.942;9.104;2023-01-28T11:07:45;13.00;;;10.93;;
8104;SDS011;4095;48.942;9.104;2023-01-28T11:10:24;12.50;;;11.20;;
8104;SDS011;4095;48.942;9.104;2023-01-28T11:12:56;13.23;;;11.43;;
8104;SDS011;4095;48.942;9.104;2023-01-28T11:15:23;12.53;;;11.23;;
8104;SDS011;4095;48.942;9.104;2023-01-28T11:17:57;11.80;;;10.23;;
8104;SDS011;4095;48.942;9.104;2023-01-28T11:20:30;12.47;;;10.50;;
8104;SDS011;4095;48.942;9.104;2023-01-28T11:23:01;12.70;;;11.13;;
8104;SDS011;4095;48.942;9.104;2023-01-28T11:25:34;13.77;;;11.33;;
8104;SDS011;4095;48.942;9.104;2023-01-28T11:28:02;14.37;;;11.57;;
8104;SDS011;4095;48.942;9.104;2023-01-28T11:30:32;12.50;;;10.90;;
8104;SDS011;4095;48.942;9.104;2023-01-28T11:35:34;11.23;;;9.43;;
8104;SDS011;4095;48.942;9.104;2023-01-28T11:38:00;11.10;;;9.80;;
8104;SDS011;4095;48.942;9.104;2023-01-28T11:40:26;11.73;;;9.80;;
8104;SDS011;4095;48.942;9.104;2023-01-28T11:42:52;13.60;;;10.67;;
8104;SDS011;4095;48.942;9.104;2023-01-28T11:48:17;12.80;;;10.70;;
8104;SDS011;4095;48.942;9.104;2023-01-28T11:51:33;9.97;;;8.20;;
8104;SDS011;4095;48.942;9.104;2023-01-28T11:57:20;10.43;;;8.40;;
8104;SDS011;4095;48.942;9.104;2023-01-28T12:08:19;9.57;;;8.30;;
8104;SDS011;4095;48.942;9.104;2023-01-28T12:14:03;8.53;;;7.63;;
8104;SDS011;4095;48.942;9.104;2023-01-28T12:21:59;10.67;;;8.93;;
8104;SDS011;4095;48.942;9.104;2023-01-28T12:29:48;10.23;;;8.93;;
8104;SDS011;4095;48.942;9.104;2023-01-28T12:32:59;9.90;;;8.77;;
8104;SDS011;4095;48.942;9.104;2023-01-28T12:46:48;11.47;;;8.73;;
8104;SDS011;4095;48.942;9.104;2023-01-28T12:49:21;10.27;;;8.40;;
8104;SDS011;4095;48.942;9.104;2023-01-28T12:54:58;10.90;;;8.90;;
8104;SDS011;4095;48.942;9.104;2023-01-28T12:57:29;10.53;;;8.73;;
8104;SDS011;4095;48.942;9.104;2023-01-28T13:02:54;11.87;;;9.53;;
8104;SDS011;4095;48.942;9.104;2023-01-28T13:05:39;9.77;;;8.70;;
8104;SDS011;4095;48.942;9.104;2023-01-28T13:10:49;9.73;;;7.80;;
8104;SDS011;4095;48.942;9.104;2023-01-28T13:13:16;8.07;;;7.13;;
8104;SDS011;4095;48.942;9.104;2023-01-28T13:15:47;11.80;;;10.00;;
8104;SDS011;4095;48.942;9.104;2023-01-28T13:20:57;8.97;;;8.03;;
8104;SDS011;4095;48.942;9.104;2023-01-28T13:23:25;8.40;;;7.23;;
8104;SDS011;4095;48.942;9.104;2023-01-28T13:26:54;8.67;;;7.27;;
8104;SDS011;4095;48.942;9.104;2023-01-28T13:29:06;8.97;;;7.90;;
8104;SDS011;4095;48.942;9.104;2023-01-28T13:31:40;16.60;;;12.77;;
8104;SDS011;4095;48.942;9.104;2023-01-28T13:34:27;10.00;;;8.67;;
8104;SDS011;4095;48.942;9.104;2023-01-28T13:37:45;8.73;;;7.90;;
8104;SDS011;4095;48.942;9.104;2023-01-28T13:39:54;18.43;;;16.33;;
8104;SDS011;4095;48.942;9.104;2023-01-28T13:42:38;18.23;;;16.33;;
8104;SDS011;4095;48.942;9.104;2023-01-28T13:47:41;7.73;;;6.87;;
8104;SDS011;4095;48.942;9.104;2023-01-28T13:50:20;8.40;;;6.83;;
8104;SDS011;4095;48.942;9.104;2023-01-28T13:52:59;7.83;;;7.03;;
8104;SDS011;4095;48.942;9.104;2023-01-28T13:55:35;7.43;;;6.63;;
8104;SDS011;4095;48.942;9.104;2023-01-28T14:13:53;8.07;;;6.03;;
8104;SDS011;4095;48.942;9.104;2023-01-28T14:16:46;6.40;;;5.70;;
8104;SDS011;4095;48.942;9.104;2023-01-28T14:19:26;7.07;;;6.37;;
8104;SDS011;4095;48.942;9.104;2023-01-28T14:21:55;7.90;;;6.20;;
8104;SDS011;4095;48.942;9.104;2023-01-28T14:24:21;6.60;;;5.90;;
8104;SDS011;4095;48.942;9.104;2023-01-28T14:32:11;7.30;;;5.83;;
8104;SDS011;4095;48.942;9.104;2023-01-28T14:34:42;5.90;;;5.17;;
8104;SDS011;4095;48.942;9.104;2023-01-28T14:37:13;6.43;;;5.60;;
8104;SDS011;4095;48.942;9.104;2023-01-28T14:39:43;5.97;;;5.37;;
8104;SDS011;4095;48.942;9.104;2023-01-28T14:42:13;6.57;;;5.87;;
8104;SDS011;4095;48.942;9.104;2023-01-28T14:44:46;6.07;;;5.47;;
8104;SDS011;4095;48.942;9.104;2023-01-28T14:52:49;7.07;;;5.50;;
8104;SDS011;4095;48.942;9.104;2023-01-28T14:55:25;5.47;;;4.87;;
8104;SDS011;4095;48.942;9.104;2023-01-28T14:57:54;6.17;;;5.00;;
8104;SDS011;4095;48.942;9.104;2023-01-28T15:00:27;5.27;;;4.77;;
8104;SDS011;4095;48.942;9.104;2023-01-28T15:02:54;5.63;;;5.03;;
8104;SDS011;4095;48.942;9.104;2023-01-28T15:05:22;5.13;;;4.63;;
8104;SDS011;4095;48.942;9.104;2023-01-28T15:07:50;5.70;;;5.07;;
8104;SDS011;4095;48.942;9.104;2023-01-28T15:10:26;5.90;;;5.23;;
8104;SDS011;4095;48.942;9.104;2023-01-28T15:15:34;5.50;;;5.00;;
8104;SDS011;4095;48.942;9.104;2023-01-28T15:18:03;6.67;;;5.83;;
8104;SDS011;4095;48.942;9.104;2023-01-28T15:20:51;5.37;;;4.87;;
8104;SDS011;4095;48.942;9.104;2023-01-28T15:23:24;6.60;;;5.03;;
8104;SDS011;4095;48.942;9.104;2023-01-28T15:25:52;6.67;;;5.40;;
8104;SDS011;4095;48.942;9.104;2023-01-28T15:28:26;6.17;;;5.10;;
8104;SDS011;4095;48.942;9.104;2023-01-28T15:30:55;5.60;;;5.03;;
8104;SDS011;4095;48.942;9.104;2023-01-28T15:33:21;5.50;;;4.87;;
8104;SDS011;4095;48.942;9.104;2023-01-28T15:35:48;7.40;;;5.20;;
8104;SDS011;4095;48.942;9.104;2023-01-28T15:38:15;7.37;;;5.23;;
8104;SDS011;4095;48.942;9.104;2023-01-28T15:40:42;4.90;;;4.40;;
8104;SDS011;4095;48.942;9.104;2023-01-28T15:43:16;5.50;;;4.90;;
8104;SDS011;4095;48.942;9.104;2023-01-28T15:45:45;6.53;;;5.07;;
8104;SDS011;4095;48.942;9.104;2023-01-28T15:48:14;5.03;;;4.53;;
8104;SDS011;4095;48.942;9.104;2023-01-28T15:50:41;6.77;;;5.10;;
8104;SDS011;4095;48.942;9.104;2023-01-28T15:53:09;6.63;;;5.03;;
8104;SDS011;4095;48.942;9.104;2023-01-28T15:55:39;6.03;;;5.03;;
8104;SDS011;4095;48.942;9.104;2023-01-28T16:00:36;6.80;;;5.43;;
8104;SDS011;4095;48.942;9.104;2023-01-28T16:03:06;6.17;;;4.90;;
8104;SDS011;4095;48.942;9.104;2023-01-28T16:05:35;5.77;;;5.10;;
8104;SDS011;4095;48.942;9.104;2023-01-28T16:08:11;5.77;;;5.17;;
8104;SDS011;4095;48.942;9.104;2023-01-28T16:10:50;6.77;;;5.27;;
8104;SDS011;4095;48.942;9.104;2023-01-28T16:13:40;5.00;;;4.43;;
8104;SDS011;4095;48.942;9.104;2023-01-28T16:16:07;5.67;;;4.97;;
8104;SDS011;4095;48.942;9.104;2023-01-28T16:18:46;4.90;;;4.47;;
8104;SDS011;4095;48.942;9.104;2023-01-28T16:21:29;4.73;;;4.30;;
8104;SDS011;4095;48.942;9.104;2023-01-28T16:24:00;4.97;;;4.47;;
8104;SDS011;4095;48.942;9.104;2023-01-28T16:26:31;5.93;;;5.10;;
8104;SDS011;4095;48.942;9.104;2023-01-28T16:29:16;5.33;;;4.60;;
8104;SDS011;4095;48.942;9.104;2023-01-28T16:31:42;5.07;;;4.57;;
8104;SDS011;4095;48.942;9.104;2023-01-28T16:34:08;4.73;;;4.23;;
8104;SDS011;4095;48.942;9.104;2023-01-28T16:36:35;4.63;;;4.13;;
8104;SDS011;4095;48.942;9.104;2023-01-28T16:39:01;5.40;;;4.87;;
8104;SDS011;4095;48.942;9.104;2023-01-28T16:41:27;5.17;;;4.50;;
8104;SDS011;4095;48.942;9.104;2023-01-28T16:43:56;5.10;;;4.10;;
8104;SDS011;4095;48.942;9.104;2023-01-28T16:46:25;5.20;;;4.43;;
8104;SDS011;4095;48.942;9.104;2023-01-28T16:48:51;5.63;;;4.63;;
8104;SDS011;4095;48.942;9.104;2023-01-28T16:51:17;5.70;;;4.67;;
8104;SDS011;4095;48.942;9.104;2023-01-28T16:53:44;6.07;;;4.97;;
8104;SDS011;4095;48.942;9.104;2023-01-28T16:56:18;5.47;;;4.90;;
8104;SDS011;4095;48.942;9.104;2023-01-28T16:58:47;5.77;;;4.70;;
8104;SDS011;4095;48.942;9.104;2023-01-28T17:01:13;5.50;;;4.97;;
8104;SDS011;4095;48.942;9.104;2023-01-28T17:03:39;7.07;;;4.73;;
8104;SDS011;4095;48.942;9.104;2023-01-28T17:06:05;6.43;;;5.17;;
8104;SDS011;4095;48.942;9.104;2023-01-28T17:08:40;6.13;;;5.40;;
8104;SDS011;4095;48.942;9.104;2023-01-28T17:11:05;6.03;;;5.43;;
8104;SDS011;4095;48.942;9.104;2023-01-28T17:13:31;6.70;;;5.50;;
8104;SDS011;4095;48.942;9.104;2023-01-28T17:15:59;7.00;;;4.57;;
8104;SDS011;4095;48.942;9.104;2023-01-28T17:18:26;6.33;;;5.70;;
8104;SDS011;4095;48.942;9.104;2023-01-28T17:20:52;9.20;;;6.70;;
8104;SDS011;4095;48.942;9.104;2023-01-28T17:23:18;6.20;;;5.60;;
8104;SDS011;4095;48.942;9.104;2023-01-28T17:25:48;15.93;;;10.80;;
8104;SDS011;4095;48.942;9.104;2023-01-28T17:28:13;12.73;;;7.47;;
8104;SDS011;4095;48.942;9.104;2023-01-28T17:30:39;7.03;;;5.17;;
8104;SDS011;4095;48.942;9.104;2023-01-28T17:33:05;7.87;;;6.13;;
8104;SDS011;4095;48.942;9.104;2023-01-28T17:35:31;5.10;;;4.60;;
8104;SDS011;4095;48.942;9.104;2023-01-28T17:37:59;5.20;;;4.70;;
8104;SDS011;4095;48.942;9.104;2023-01-28T17:40:26;5.97;;;4.30;;
8104;SDS011;4095;48.942;9.104;2023-01-28T17:42:53;4.50;;;4.10;;
8104;SDS011;4095;48.942;9.104;2023-01-28T17:45:19;5.10;;;4.60;;